Time;durP1;ratioP1;P1;durP2;ratioP2;P2;SDS_P1;SDS_P2;PMS_P1;PMS_P2;Temp;Humidity;BMP_temperature;BMP_pressure;BME280_temperature;BME280_humidity;BME280_pressure;Samples;Min_cycle;Max_cycle;Signal;HPM_P1;HPM_P2
2022/05/29 00:02:23;;;;;;;12.30;3.80;;;;;;;;;;5062099;28;20044;-61
2022/05/29 00:04:49;;;;;;;12.60;4.57;;;;;;;;;;5052327;28;20089;-60
2022/05/29 00:07:17;;;;;;;15.77;4.50;;;;;;;;;;5047749;28;20446;-61
2022/05/29 00:09:45;;;;;;;16.43;4.10;;;;;;;;;;5048987;28;20053;-61
2022/05/29 00:12:12;;;;;;;11.77;4.20;;;;;;;;;;5065009;28;20502;-61
2022/05/29 00:14:38;;;;;;;10.90;4.30;;;;;;;;;;5057242;28;20514;-61
2022/05/29 00:17:05;;;;;;;14.23;4.27;;;;;;;;;;5051889;28;20053;-61
2022/05/29 00:19:31;;;;;;;13.20;4.50;;;;;;;;;;5048138;28;20064;-60
2022/05/29 00:21:57;;;;;;;12.27;3.80;;;;;;;;;;5063090;28;20044;-61
2022/05/29 00:24:23;;;;;;;9.47;3.93;;;;;;;;;;5066148;28;20040;-61
2022/05/29 00:26:50;;;;;;;12.03;4.53;;;;;;;;;;5061625;28;20049;-60
2022/05/29 00:29:16;;;;;;;12.87;3.83;;;;;;;;;;5052687;28;20380;-60
2022/05/29 00:31:42;;;;;;;12.50;3.17;;;;;;;;;;5052715;28;20053;-61
2022/05/29 00:34:08;;;;;;;12.57;4.00;;;;;;;;;;5051726;28;20103;-60
2022/05/29 00:36:36;;;;;;;10.43;3.87;;;;;;;;;;5052721;28;20119;-61
2022/05/29 00:39:02;;;;;;;12.27;3.70;;;;;;;;;;5055876;28;20134;-61
2022/05/29 00:41:32;;;;;;;10.03;3.60;;;;;;;;;;5066029;28;20056;-61
2022/05/29 00:44:14;;;;;;;13.63;3.43;;;;;;;;;;5052252;28;20048;-60
2022/05/29 00:46:44;;;;;;;13.43;3.40;;;;;;;;;;5059537;28;20059;-61
2022/05/29 00:49:10;;;;;;;8.40;3.50;;;;;;;;;;5072780;28;20044;-60
2022/05/29 00:51:39;;;;;;;17.20;4.17;;;;;;;;;;5071369;28;20057;-61
2022/05/29 00:54:06;;;;;;;16.40;4.13;;;;;;;;;;5059736;28;20392;-61
2022/05/29 00:56:33;;;;;;;16.83;4.30;;;;;;;;;;5057181;28;20045;-60
2022/05/29 00:58:59;;;;;;;15.67;5.07;;;;;;;;;;5071772;28;20037;-60
2022/05/29 01:01:25;;;;;;;18.17;4.83;;;;;;;;;;5070643;28;20048;-60
2022/05/29 01:03:51;;;;;;;16.97;5.47;;;;;;;;;;5065293;28;20124;-60
2022/05/29 01:06:18;;;;;;;12.57;4.27;;;;;;;;;;5051634;28;20120;-60
2022/05/29 01:08:44;;;;;;;15.43;4.70;;;;;;;;;;5071926;28;20045;-60
2022/05/29 01:11:12;;;;;;;14.27;5.30;;;;;;;;;;5068738;28;20511;-61
2022/05/29 01:13:38;;;;;;;14.97;5.10;;;;;;;;;;5055435;28;20049;-61
2022/05/29 01:16:13;;;;;;;15.17;4.17;;;;;;;;;;5050907;28;20048;-61
2022/05/29 01:18:47;;;;;;;17.93;4.60;;;;;;;;;;5065279;28;20037;-61
2022/05/29 01:21:31;;;;;;;18.20;4.53;;;;;;;;;;5071500;28;20048;-61
2022/05/29 01:24:16;;;;;;;13.97;3.80;;;;;;;;;;5054106;28;20455;-61
2022/05/29 01:26:45;;;;;;;17.27;4.97;;;;;;;;;;5055831;28;20091;-61
2022/05/29 01:29:16;;;;;;;13.37;5.03;;;;;;;;;;5062970;28;20045;-61
2022/05/29 01:31:45;;;;;;;18.53;5.00;;;;;;;;;;5056018;28;20052;-61
2022/05/29 01:34:21;;;;;;;17.47;4.73;;;;;;;;;;5069049;28;20052;-61
2022/05/29 01:36:53;;;;;;;21.63;5.43;;;;;;;;;;5050157;28;20048;-61
2022/05/29 01:39:35;;;;;;;20.53;5.70;;;;;;;;;;5060543;28;20056;-61
2022/05/29 01:42:08;;;;;;;18.80;5.53;;;;;;;;;;5050943;28;20416;-61
2022/05/29 01:44:37;;;;;;;19.45;6.25;;;;;;;;;;5048779;28;20053;-60
2022/05/29 01:47:07;;;;;;;19.53;6.10;;;;;;;;;;5067939;28;20044;-61
2022/05/29 01:49:41;;;;;;;22.57;6.23;;;;;;;;;;5051853;28;20056;-60
2022/05/29 01:52:27;;;;;;;18.30;5.70;;;;;;;;;;5067504;28;20044;-61
2022/05/29 01:54:56;;;;;;;15.33;5.97;;;;;;;;;;5069085;28;20052;-61
2022/05/29 01:57:31;;;;;;;15.23;5.83;;;;;;;;;;5071603;28;20506;-61
2022/05/29 02:00:00;;;;;;;16.40;6.87;;;;;;;;;;5071513;28;20063;-61
2022/05/29 02:02:29;;;;;;;18.43;6.57;;;;;;;;;;5054178;28;20037;-61
2022/05/29 02:04:57;;;;;;;19.33;6.90;;;;;;;;;;5051841;28;20053;-61
2022/05/29 02:10:12;;;;;;;17.77;6.30;;;;;;;;;;5051024;28;20053;-60
2022/05/29 02:12:41;;;;;;;18.43;6.00;;;;;;;;;;5062933;28;20529;-61
2022/05/29 02:15:08;;;;;;;17.77;6.73;;;;;;;;;;5071318;28;20790;-60
2022/05/29 02:17:42;;;;;;;20.30;5.50;;;;;;;;;;5064901;28;20076;-61
2022/05/29 02:20:08;;;;;;;13.33;5.80;;;;;;;;;;5050772;28;20463;-61
2022/05/29 02:22:36;;;;;;;18.40;5.90;;;;;;;;;;5050983;28;20056;-61
2022/05/29 02:25:08;;;;;;;20.10;6.13;;;;;;;;;;5059457;28;20563;-61
2022/05/29 02:27:37;;;;;;;17.80;5.70;;;;;;;;;;5070837;28;20063;-61
2022/05/29 02:30:04;;;;;;;18.90;5.73;;;;;;;;;;5071092;28;20526;-61
2022/05/29 02:32:44;;;;;;;24.00;5.37;;;;;;;;;;5069279;28;20449;-61
2022/05/29 02:35:25;;;;;;;27.10;6.90;;;;;;;;;;5070589;28;20098;-61
2022/05/29 02:37:54;;;;;;;20.97;5.90;;;;;;;;;;5070258;28;20131;-61
2022/05/29 02:40:26;;;;;;;17.60;5.47;;;;;;;;;;5070533;28;20422;-61
2022/05/29 02:43:07;;;;;;;21.07;6.20;;;;;;;;;;5069535;28;20103;-61
2022/05/29 02:45:46;;;;;;;20.30;6.13;;;;;;;;;;5060753;28;20049;-61
2022/05/29 02:48:27;;;;;;;20.83;5.57;;;;;;;;;;5050173;28;20048;-61
2022/05/29 02:50:58;;;;;;;18.00;5.80;;;;;;;;;;5049983;28;20049;-61
2022/05/29 02:53:24;;;;;;;16.20;5.57;;;;;;;;;;5055441;28;20048;-61
2022/05/29 02:55:51;;;;;;;17.73;5.60;;;;;;;;;;5049777;28;20053;-61
2022/05/29 02:58:19;;;;;;;15.37;5.27;;;;;;;;;;5048815;28;20553;-61
2022/05/29 03:01:05;;;;;;;20.07;5.77;;;;;;;;;;5050313;28;20041;-61
2022/05/29 03:03:37;;;;;;;22.33;5.70;;;;;;;;;;5028075;28;20562;-61
2022/05/29 03:06:23;;;;;;;22.17;5.40;;;;;;;;;;5050078;28;20127;-61
2022/05/29 03:08:59;;;;;;;17.47;5.07;;;;;;;;;;5028434;28;20052;-61
2022/05/29 03:11:32;;;;;;;14.07;4.50;;;;;;;;;;5049824;28;20053;-61
2022/05/29 03:14:18;;;;;;;18.90;5.03;;;;;;;;;;5048606;28;20084;-61
2022/05/29 03:17:09;;;;;;;21.57;5.73;;;;;;;;;;5049736;28;20053;-61
2022/05/29 03:20:03;;;;;;;13.53;4.67;;;;;;;;;;5049769;28;20044;-61
2022/05/29 03:22:37;;;;;;;14.68;4.60;;;;;;;;;;5049902;28;20094;-61
2022/05/29 03:25:06;;;;;;;20.17;5.50;;;;;;;;;;5049833;28;20541;-62
2022/05/29 03:27:38;;;;;;;18.37;5.67;;;;;;;;;;5049742;28;20057;-61
2022/05/29 03:30:08;;;;;;;19.90;5.50;;;;;;;;;;5050251;28;20526;-61
2022/05/29 03:32:35;;;;;;;19.20;4.87;;;;;;;;;;5050077;28;20052;-61
2022/05/29 03:35:15;;;;;;;15.27;5.07;;;;;;;;;;5050056;28;20090;-61
2022/05/29 03:37:41;;;;;;;15.17;4.30;;;;;;;;;;5065739;28;20048;-61
2022/05/29 03:40:07;;;;;;;21.80;4.53;;;;;;;;;;5069082;28;20052;-61
2022/05/29 03:42:33;;;;;;;15.63;4.50;;;;;;;;;;5069610;28;20056;-61
2022/05/29 03:44:59;;;;;;;14.63;4.23;;;;;;;;;;5069296;28;20040;-61
2022/05/29 03:47:25;;;;;;;17.27;4.97;;;;;;;;;;5069492;28;20037;-61
2022/05/29 03:49:51;;;;;;;16.20;5.10;;;;;;;;;;5059525;28;20052;-61
2022/05/29 03:52:17;;;;;;;17.53;4.80;;;;;;;;;;5049615;28;20049;-61
2022/05/29 03:54:43;;;;;;;22.03;4.20;;;;;;;;;;5060122;28;20048;-61
2022/05/29 03:57:09;;;;;;;15.77;4.23;;;;;;;;;;5074647;28;20044;-61
2022/05/29 03:59:35;;;;;;;14.77;4.63;;;;;;;;;;5075974;28;20486;-61
2022/05/29 04:02:02;;;;;;;14.57;4.53;;;;;;;;;;5063762;28;20135;-61
2022/05/29 04:04:28;;;;;;;20.67;5.33;;;;;;;;;;5059919;28;20052;-61
2022/05/29 04:06:54;;;;;;;17.80;4.43;;;;;;;;;;5063083;28;20049;-61
2022/05/29 04:12:05;;;;;;;19.07;4.60;;;;;;;;;;5054495;28;20127;-61
2022/05/29 04:14:40;;;;;;;13.00;3.87;;;;;;;;;;5055401;28;20045;-61
2022/05/29 04:17:07;;;;;;;19.67;4.20;;;;;;;;;;5065590;28;20045;-61
2022/05/29 04:19:33;;;;;;;17.03;4.40;;;;;;;;;;5062239;28;20507;-61
2022/05/29 04:22:00;;;;;;;16.10;3.53;;;;;;;;;;5063926;28;20049;-64
2022/05/29 04:24:26;;;;;;;11.43;3.47;;;;;;;;;;5066860;28;20044;-61
2022/05/29 04:26:52;;;;;;;18.67;4.27;;;;;;;;;;5060302;28;20128;-61
2022/05/29 04:29:19;;;;;;;18.03;3.37;;;;;;;;;;5056081;28;20041;-61
2022/05/29 04:34:30;;;;;;;9.90;3.10;;;;;;;;;;5067157;28;20048;-61
2022/05/29 04:36:56;;;;;;;13.87;3.90;;;;;;;;;;5066296;28;20098;-61
2022/05/29 04:39:22;;;;;;;9.77;3.37;;;;;;;;;;5063737;28;20414;-61
2022/05/29 04:41:48;;;;;;;7.87;2.80;;;;;;;;;;5067550;28;20080;-61
2022/05/29 04:44:14;;;;;;;11.13;3.90;;;;;;;;;;5063368;28;20082;-60
2022/05/29 04:46:40;;;;;;;7.20;2.70;;;;;;;;;;5055229;28;20044;-61
2022/05/29 04:49:06;;;;;;;14.87;3.53;;;;;;;;;;5060190;28;20219;-61
2022/05/29 04:51:32;;;;;;;13.40;3.00;;;;;;;;;;5064521;28;20387;-61
2022/05/29 04:53:58;;;;;;;11.80;3.67;;;;;;;;;;5066188;28;20049;-61
2022/05/29 04:56:25;;;;;;;9.33;3.07;;;;;;;;;;5064943;28;20045;-60
2022/05/29 04:58:51;;;;;;;14.27;3.10;;;;;;;;;;5062309;28;20048;-61
2022/05/29 05:01:17;;;;;;;10.97;2.80;;;;;;;;;;5059095;28;20040;-61
2022/05/29 05:03:43;;;;;;;11.80;2.60;;;;;;;;;;5062074;28;20502;-61
2022/05/29 05:06:09;;;;;;;13.00;3.23;;;;;;;;;;5059111;28;20440;-61
2022/05/29 05:08:35;;;;;;;12.60;3.07;;;;;;;;;;5058004;28;20120;-61
2022/05/29 05:11:01;;;;;;;10.80;3.03;;;;;;;;;;5058374;28;20128;-61
2022/05/29 05:13:27;;;;;;;10.17;2.73;;;;;;;;;;5068706;28;20697;-61
2022/05/29 05:16:03;;;;;;;10.53;2.80;;;;;;;;;;5059108;28;20044;-61
2022/05/29 05:18:30;;;;;;;10.70;2.57;;;;;;;;;;5053549;28;20055;-61
2022/05/29 05:20:56;;;;;;;11.13;2.60;;;;;;;;;;5056948;28;20084;-61
2022/05/29 05:23:22;;;;;;;9.47;2.27;;;;;;;;;;5058172;28;20425;-61
2022/05/29 05:25:48;;;;;;;5.93;2.20;;;;;;;;;;5063764;28;20044;-61
2022/05/29 05:28:14;;;;;;;13.40;2.97;;;;;;;;;;5061418;28;20120;-61
2022/05/29 05:30:40;;;;;;;9.47;2.60;;;;;;;;;;5059260;28;20410;-61
2022/05/29 05:33:06;;;;;;;14.23;2.97;;;;;;;;;;5056280;28;20131;-61
2022/05/29 05:35:32;;;;;;;14.00;2.90;;;;;;;;;;5059400;28;20091;-61
2022/05/29 05:37:58;;;;;;;7.93;2.27;;;;;;;;;;5058802;28;20441;-61
2022/05/29 05:40:24;;;;;;;14.23;2.37;;;;;;;;;;5056671;28;20067;-61
2022/05/29 05:42:50;;;;;;;7.60;2.10;;;;;;;;;;5056286;28;20418;-61
2022/05/29 05:45:16;;;;;;;12.23;2.40;;;;;;;;;;5058300;28;20029;-61
2022/05/29 05:47:42;;;;;;;11.20;2.27;;;;;;;;;;5059601;28;20118;-61
2022/05/29 05:50:09;;;;;;;11.57;2.47;;;;;;;;;;5063177;28;20403;-61
2022/05/29 05:52:36;;;;;;;8.03;2.50;;;;;;;;;;5059078;28;20040;-61
2022/05/29 05:55:10;;;;;;;9.30;3.00;;;;;;;;;;5060672;28;20349;-61
2022/05/29 05:57:36;;;;;;;10.70;2.23;;;;;;;;;;5057852;28;20108;-61
2022/05/29 06:00:04;;;;;;;8.50;2.40;;;;;;;;;;5062411;28;20087;-61
2022/05/29 06:02:30;;;;;;;8.57;2.47;;;;;;;;;;5059846;28;20049;-60
2022/05/29 06:04:56;;;;;;;10.30;2.57;;;;;;;;;;5061564;28;20391;-61
2022/05/29 06:07:22;;;;;;;12.47;2.17;;;;;;;;;;5059870;28;20045;-61
2022/05/29 06:09:48;;;;;;;7.03;2.10;;;;;;;;;;5059141;28;20047;-61
2022/05/29 06:12:14;;;;;;;12.77;2.60;;;;;;;;;;5057465;28;20040;-61
2022/05/29 06:14:40;;;;;;;9.00;2.47;;;;;;;;;;5060261;28;20055;-61
2022/05/29 06:17:07;;;;;;;10.17;2.60;;;;;;;;;;5059251;28;20037;-61
2022/05/29 06:19:33;;;;;;;12.83;2.33;;;;;;;;;;5056694;28;20053;-61
2022/05/29 06:21:59;;;;;;;15.17;3.40;;;;;;;;;;5058608;28;20065;-61
2022/05/29 06:24:25;;;;;;;7.30;1.70;;;;;;;;;;5058190;28;20056;-61
2022/05/29 06:26:51;;;;;;;15.10;2.20;;;;;;;;;;5058958;28;20037;-61
2022/05/29 06:29:18;;;;;;;7.73;2.00;;;;;;;;;;5060344;28;20506;-60
2022/05/29 06:31:44;;;;;;;9.47;2.07;;;;;;;;;;5058647;28;20102;-61
2022/05/29 06:34:10;;;;;;;7.93;2.20;;;;;;;;;;5053449;28;20503;-61
2022/05/29 06:36:36;;;;;;;7.33;2.23;;;;;;;;;;5062032;28;20043;-61
2022/05/29 06:39:03;;;;;;;11.63;2.77;;;;;;;;;;5056002;28;20041;-61
2022/05/29 06:41:30;;;;;;;12.63;2.23;;;;;;;;;;5058130;28;20053;-61
2022/05/29 06:43:56;;;;;;;9.23;2.57;;;;;;;;;;5062420;28;20734;-61
2022/05/29 06:46:22;;;;;;;8.37;1.80;;;;;;;;;;5061787;28;20142;-61
2022/05/29 06:48:49;;;;;;;9.43;2.30;;;;;;;;;;5069849;28;20051;-61
2022/05/29 06:51:17;;;;;;;8.47;2.27;;;;;;;;;;5070637;28;20049;-61
2022/05/29 06:53:43;;;;;;;9.37;2.20;;;;;;;;;;5070910;28;20040;-61
2022/05/29 06:56:10;;;;;;;10.33;1.87;;;;;;;;;;5062807;28;20040;-61
2022/05/29 06:58:36;;;;;;;11.27;2.10;;;;;;;;;;5050539;28;20073;-61
2022/05/29 07:09:23;;;;;;;12.83;1.80;;;;;;;;;;5050348;28;20078;-61
2022/05/29 07:11:51;;;;;;;9.20;2.10;;;;;;;;;;5050128;28;20053;-60
2022/05/29 07:14:19;;;;;;;7.43;1.67;;;;;;;;;;5050502;28;20071;-61
2022/05/29 07:16:45;;;;;;;6.77;2.20;;;;;;;;;;5053948;28;20040;-61
2022/05/29 07:19:13;;;;;;;8.97;1.63;;;;;;;;;;5056645;28;20052;-61
2022/05/29 07:21:40;;;;;;;7.10;1.80;;;;;;;;;;5064700;28;20083;-61
2022/05/29 07:24:06;;;;;;;8.50;1.57;;;;;;;;;;5069983;28;20045;-60
2022/05/29 07:26:32;;;;;;;11.67;1.87;;;;;;;;;;5068775;28;20075;-61
2022/05/29 07:28:58;;;;;;;7.67;1.80;;;;;;;;;;5068301;28;20417;-60
2022/05/29 07:31:25;;;;;;;8.60;1.67;;;;;;;;;;5059686;28;20128;-61
2022/05/29 07:33:51;;;;;;;8.90;1.60;;;;;;;;;;5049426;28;20048;-60
2022/05/29 07:36:21;;;;;;;7.43;1.60;;;;;;;;;;5048145;28;20513;-60
2022/05/29 07:38:47;;;;;;;7.57;1.87;;;;;;;;;;5050062;28;20071;-61
2022/05/29 07:44:00;;;;;;;12.83;2.10;;;;;;;;;;5037924;28;20063;-61
2022/05/29 07:46:26;;;;;;;9.40;1.90;;;;;;;;;;5049702;28;20041;-61
2022/05/29 07:48:52;;;;;;;8.27;1.87;;;;;;;;;;5048623;28;20037;-61
2022/05/29 07:51:18;;;;;;;10.60;2.13;;;;;;;;;;5060728;28;20048;-61
2022/05/29 07:53:45;;;;;;;9.17;2.10;;;;;;;;;;5058581;28;20052;-61
2022/05/29 07:56:11;;;;;;;9.93;2.37;;;;;;;;;;5055398;28;20052;-61
2022/05/29 07:58:42;;;;;;;15.27;2.13;;;;;;;;;;5058018;28;20052;-60
2022/05/29 08:01:08;;;;;;;7.47;1.60;;;;;;;;;;5053546;28;20052;-61
2022/05/29 08:03:34;;;;;;;10.97;2.27;;;;;;;;;;5057211;28;20044;-61
2022/05/29 08:06:00;;;;;;;9.57;2.37;;;;;;;;;;5060460;28;20040;-61
2022/05/29 08:08:28;;;;;;;13.33;4.43;;;;;;;;;;5062640;28;20525;-60
2022/05/29 08:10:54;;;;;;;6.20;1.57;;;;;;;;;;5067680;28;20143;-61
2022/05/29 08:13:20;;;;;;;13.50;2.13;;;;;;;;;;5069137;28;20082;-61
2022/05/29 08:15:46;;;;;;;12.50;1.90;;;;;;;;;;5069363;28;20048;-61
2022/05/29 08:18:12;;;;;;;14.07;2.40;;;;;;;;;;5068576;28;20059;-60
2022/05/29 08:20:39;;;;;;;8.60;2.03;;;;;;;;;;5069063;28;20040;-61
2022/05/29 08:23:05;;;;;;;6.87;1.70;;;;;;;;;;5069281;28;20051;-61
2022/05/29 08:31:01;;;;;;;10.20;1.53;;;;;;;;;;5068881;28;20044;-61
2022/05/29 08:33:28;;;;;;;7.63;1.70;;;;;;;;;;5069088;28;20047;-61
2022/05/29 08:35:57;;;;;;;11.97;2.03;;;;;;;;;;5068818;28;20483;-61
2022/05/29 08:38:23;;;;;;;10.40;2.20;;;;;;;;;;5061719;28;20036;-60
2022/05/29 08:40:51;;;;;;;9.37;1.80;;;;;;;;;;5051547;28;20065;-61
2022/05/29 08:43:19;;;;;;;4.63;1.20;;;;;;;;;;5061480;28;20056;-61
2022/05/29 08:45:48;;;;;;;11.23;2.03;;;;;;;;;;5063657;28;20152;-61
2022/05/29 08:48:16;;;;;;;9.43;1.70;;;;;;;;;;5067949;28;20113;-60
2022/05/29 08:50:47;;;;;;;9.47;1.97;;;;;;;;;;5070372;28;20048;-61
2022/05/29 08:53:26;;;;;;;7.30;1.30;;;;;;;;;;5071378;28;20044;-60
2022/05/29 08:55:57;;;;;;;6.43;1.37;;;;;;;;;;5053582;28;20045;-60
2022/05/29 08:58:23;;;;;;;7.83;1.60;;;;;;;;;;5062393;28;20472;-61
2022/05/29 09:01:06;;;;;;;9.87;1.67;;;;;;;;;;5061229;28;20041;-61
2022/05/29 09:03:51;;;;;;;5.68;0.93;;;;;;;;;;5067244;28;20044;-60
2022/05/29 09:06:17;;;;;;;6.73;1.00;;;;;;;;;;5071239;28;20491;-60
2022/05/29 09:08:43;;;;;;;5.93;1.23;;;;;;;;;;5071031;28;20091;-61
2022/05/29 09:11:13;;;;;;;10.23;1.93;;;;;;;;;;5070539;28;20503;-60
2022/05/29 09:13:47;;;;;;;10.37;1.73;;;;;;;;;;5070213;28;20052;-60
2022/05/29 09:16:35;;;;;;;6.25;1.42;;;;;;;;;;5071722;28;20055;-60
2022/05/29 09:19:03;;;;;;;5.93;0.90;;;;;;;;;;5053609;28;20037;-60
2022/05/29 09:21:37;;;;;;;4.23;0.90;;;;;;;;;;5053344;28;20056;-60
2022/05/29 09:24:07;;;;;;;4.50;0.90;;;;;;;;;;5072015;28;20103;-60
2022/05/29 09:26:36;;;;;;;5.17;1.40;;;;;;;;;;5068576;28;20150;-60
2022/05/29 09:29:02;;;;;;;5.23;1.00;;;;;;;;;;5070902;28;20052;-60
2022/05/29 09:31:28;;;;;;;3.63;0.90;;;;;;;;;;5068113;28;20785;-60
2022/05/29 09:33:54;;;;;;;5.50;1.20;;;;;;;;;;5058165;28;20049;-60
2022/05/29 09:36:51;;;;;;;3.40;1.07;;;;;;;;;;5064780;28;20044;-60
2022/05/29 09:39:17;;;;;;;8.10;1.53;;;;;;;;;;5071217;28;20642;-60
2022/05/29 09:41:46;;;;;;;4.50;1.00;;;;;;;;;;5070385;28;20059;-60
2022/05/29 09:44:17;;;;;;;6.40;0.90;;;;;;;;;;5063136;28;20136;-60
2022/05/29 09:46:48;;;;;;;5.10;0.90;;;;;;;;;;5069378;28;20146;-60
2022/05/29 09:52:16;;;;;;;6.07;1.40;;;;;;;;;;5052160;28;20045;-60
2022/05/29 09:54:44;;;;;;;3.93;1.17;;;;;;;;;;5069313;28;20041;-60
2022/05/29 09:57:10;;;;;;;7.13;1.50;;;;;;;;;;5070601;28;20054;-60
2022/05/29 09:59:38;;;;;;;7.07;2.20;;;;;;;;;;5070473;28;20074;-60
2022/05/29 10:02:05;;;;;;;4.73;1.10;;;;;;;;;;5066499;28;20056;-61
2022/05/29 10:04:38;;;;;;;5.33;1.30;;;;;;;;;;5050917;28;20839;-60
2022/05/29 10:07:15;;;;;;;8.77;1.15;;;;;;;;;;5069697;28;20060;-60
2022/05/29 10:09:58;;;;;;;7.03;1.30;;;;;;;;;;5061574;28;20037;-60
2022/05/29 10:12:33;;;;;;;4.60;1.00;;;;;;;;;;5069300;28;20052;-62
2022/05/29 10:14:59;;;;;;;4.80;1.10;;;;;;;;;;5070734;28;20415;-60
2022/05/29 10:17:28;;;;;;;3.37;1.00;;;;;;;;;;5061244;28;20486;-60
2022/05/29 10:19:54;;;;;;;4.77;0.90;;;;;;;;;;5050917;28;20045;-60
2022/05/29 10:22:36;;;;;;;3.27;0.87;;;;;;;;;;5054329;28;20048;-60
2022/05/29 10:25:13;;;;;;;5.37;0.87;;;;;;;;;;5055585;28;20055;-60
2022/05/29 10:27:40;;;;;;;2.77;0.77;;;;;;;;;;5060382;28;20055;-60
2022/05/29 10:30:11;;;;;;;5.43;1.67;;;;;;;;;;5060168;28;20127;-60
2022/05/29 10:32:38;;;;;;;4.20;0.70;;;;;;;;;;5065239;28;20041;-60
2022/05/29 10:35:11;;;;;;;3.97;1.20;;;;;;;;;;5068092;28;20040;-60
2022/05/29 10:37:39;;;;;;;4.30;1.27;;;;;;;;;;5050432;28;20124;-60
2022/05/29 10:40:17;;;;;;;4.43;1.20;;;;;;;;;;5066052;28;20052;-60
2022/05/29 10:42:45;;;;;;;5.33;1.00;;;;;;;;;;5069324;28;20048;-60
2022/05/29 10:45:18;;;;;;;9.17;1.20;;;;;;;;;;5064430;28;20501;-60
2022/05/29 10:47:50;;;;;;;5.10;1.70;;;;;;;;;;5068436;28;20051;-60
2022/05/29 10:50:18;;;;;;;4.83;1.23;;;;;;;;;;5070064;28;20037;-60
2022/05/29 10:52:56;;;;;;;5.83;1.20;;;;;;;;;;5069682;28;20045;-60
2022/05/29 10:55:41;;;;;;;5.13;1.23;;;;;;;;;;5067481;28;20518;-60
2022/05/29 10:58:30;;;;;;;9.83;1.60;;;;;;;;;;5069019;28;20056;-60
2022/05/29 11:01:02;;;;;;;5.30;1.83;;;;;;;;;;5065031;28;20120;-60
2022/05/29 11:03:52;;;;;;;9.57;1.60;;;;;;;;;;5051192;28;20061;-60
2022/05/29 11:06:37;;;;;;;5.60;1.43;;;;;;;;;;5064632;28;20518;-61
2022/05/29 11:09:22;;;;;;;5.87;1.10;;;;;;;;;;5056654;28;20132;-60
2022/05/29 11:12:05;;;;;;;4.17;1.13;;;;;;;;;;5066370;28;20051;-60
2022/05/29 11:14:31;;;;;;;;;;;;;;;;;;5069484;28;20532;-60
2022/05/29 11:17:00;;;;;;;6.10;1.43;;;;;;;;;;5068044;28;19920;-61
2022/05/29 11:19:46;;;;;;;7.40;1.53;;;;;;;;;;5051616;28;20127;-60
2022/05/29 11:22:30;;;;;;;4.17;0.90;;;;;;;;;;5046729;28;20052;-60
2022/05/29 11:25:12;;;;;;;4.17;1.20;;;;;;;;;;5055612;28;20450;-60
2022/05/29 11:27:44;;;;;;;6.80;0.90;;;;;;;;;;5053205;28;20524;-60
2022/05/29 11:30:13;;;;;;;4.43;1.03;;;;;;;;;;5056473;28;20045;-60
2022/05/29 11:32:48;;;;;;;6.43;1.17;;;;;;;;;;5061520;28;20067;-60
2022/05/29 11:35:37;;;;;;;4.03;1.00;;;;;;;;;;5057882;28;20051;-60
2022/05/29 11:38:03;;;;;;;4.87;1.00;;;;;;;;;;5059932;28;20124;-60
2022/05/29 11:40:31;;;;;;;4.77;1.10;;;;;;;;;;5059735;28;20203;-60
2022/05/29 11:42:57;;;;;;;4.40;1.57;;;;;;;;;;5065321;28;20045;-60
2022/05/29 11:51:06;;;;;;;7.17;1.20;;;;;;;;;;5054368;28;20044;-60
2022/05/29 11:51:08;;;;;;;4.63;1.00;;;;;;;;;;5058021;28;20050;-59
2022/05/29 11:53:47;;;;;;;5.47;1.27;;;;;;;;;;5054615;28;20045;-59
2022/05/29 11:56:17;;;;;;;4.80;1.10;;;;;;;;;;5051224;28;20620;-60
2022/05/29 11:58:47;;;;;;;4.57;1.10;;;;;;;;;;5057991;28;20059;-60
2022/05/29 12:01:16;;;;;;;2.90;0.80;;;;;;;;;;5057278;28;20043;-60
2022/05/29 12:03:51;;;;;;;7.27;1.40;;;;;;;;;;5059024;28;20151;-60
2022/05/29 12:06:29;;;;;;;4.80;1.07;;;;;;;;;;5062043;28;20040;-60
2022/05/29 12:08:58;;;;;;;3.57;1.13;;;;;;;;;;5059057;28;20037;-60
2022/05/29 12:11:30;;;;;;;5.33;1.20;;;;;;;;;;5066612;28;20079;-60
2022/05/29 12:14:02;;;;;;;5.33;1.20;;;;;;;;;;5066488;28;20040;-60
2022/05/29 12:16:29;;;;;;;4.87;1.37;;;;;;;;;;5066295;28;20310;-59
2022/05/29 12:18:56;;;;;;;5.20;1.20;;;;;;;;;;5061618;28;20767;-59
2022/05/29 12:21:27;;;;;;;6.43;1.10;;;;;;;;;;5071385;28;20036;-60
2022/05/29 12:23:54;;;;;;;6.37;1.30;;;;;;;;;;5066601;28;20053;-60
2022/05/29 12:26:35;;;;;;;6.73;1.90;;;;;;;;;;5067254;28;20048;-60
2022/05/29 12:29:06;;;;;;;8.67;1.50;;;;;;;;;;5063621;28;20383;-60
2022/05/29 12:31:35;;;;;;;7.00;1.50;;;;;;;;;;5061379;28;20218;-61
2022/05/29 12:34:02;;;;;;;6.63;1.47;;;;;;;;;;5070105;28;20123;-60
2022/05/29 12:36:37;;;;;;;6.77;1.80;;;;;;;;;;5064044;28;20566;-60
2022/05/29 12:39:03;;;;;;;6.20;1.13;;;;;;;;;;5070107;28;20088;-60
2022/05/29 12:42:07;;;;;;;7.83;1.20;;;;;;;;;;5057062;28;20092;-60
2022/05/29 12:44:33;;;;;;;8.87;1.90;;;;;;;;;;5030212;28;20099;-60
2022/05/29 12:47:02;;;;;;;8.20;1.03;;;;;;;;;;5019480;28;20717;-60
2022/05/29 12:49:47;;;;;;;4.30;1.07;;;;;;;;;;5037181;28;20064;-59
2022/05/29 12:52:17;;;;;;;4.03;1.33;;;;;;;;;;5070659;28;20379;-60
2022/05/29 12:54:42;;;;;;;4.23;0.90;;;;;;;;;;5070219;28;20388;-60
2022/05/29 12:57:18;;;;;;;3.20;0.87;;;;;;;;;;5054262;28;20162;-59
2022/05/29 12:59:57;;;;;;;4.57;0.93;;;;;;;;;;5071058;28;20478;-59
2022/05/29 13:02:23;;;;;;;4.40;1.03;;;;;;;;;;5060621;28;20048;-59
2022/05/29 13:04:53;;;;;;;4.23;1.20;;;;;;;;;;5060613;28;20411;-60
2022/05/29 13:07:26;;;;;;;9.20;1.13;;;;;;;;;;5071663;28;20546;-59
2022/05/29 13:10:05;;;;;;;3.80;1.33;;;;;;;;;;5061561;28;20071;-59
2022/05/29 13:12:36;;;;;;;7.37;1.80;;;;;;;;;;5052033;28;20052;-60
2022/05/29 13:15:05;;;;;;;8.80;2.13;;;;;;;;;;5052475;28;20051;-60
2022/05/29 13:17:33;;;;;;;10.67;1.50;;;;;;;;;;5071227;28;20496;-60
2022/05/29 13:20:07;;;;;;;6.50;1.30;;;;;;;;;;5071854;28;20070;-60
2022/05/29 13:22:53;;;;;;;6.37;1.13;;;;;;;;;;5072291;28;20594;-60
2022/05/29 13:25:21;;;;;;;6.70;1.57;;;;;;;;;;5063645;28;20064;-60
2022/05/29 13:27:48;;;;;;;10.13;1.83;;;;;;;;;;5049595;28;20136;-60
2022/05/29 13:30:49;;;;;;;6.23;1.40;;;;;;;;;;5051599;28;20041;-60
2022/05/29 13:33:30;;;;;;;8.10;1.50;;;;;;;;;;5020550;28;20051;-60
2022/05/29 13:35:57;;;;;;;5.57;2.27;;;;;;;;;;5054151;28;20041;-60
2022/05/29 13:38:42;;;;;;;8.30;1.47;;;;;;;;;;5062478;28;20037;-60
2022/05/29 13:41:12;;;;;;;7.90;1.47;;;;;;;;;;5064212;28;20048;-60
2022/05/29 13:43:39;;;;;;;6.97;1.50;;;;;;;;;;5069411;28;20127;-60
2022/05/29 13:46:18;;;;;;;4.73;1.33;;;;;;;;;;5056591;28;20049;-60
2022/05/29 13:48:58;;;;;;;7.90;1.57;;;;;;;;;;5049513;28;20044;-60
2022/05/29 13:51:27;;;;;;;6.63;1.63;;;;;;;;;;5069653;28;20045;-60
2022/05/29 13:54:04;;;;;;;11.07;1.80;;;;;;;;;;5068071;28;20086;-60
2022/05/29 13:56:48;;;;;;;9.23;1.57;;;;;;;;;;5059095;28;20044;-60
2022/05/29 14:04:54;;;;;;;9.10;2.40;;;;;;;;;;5052351;28;20582;-60
2022/05/29 14:07:22;;;;;;;10.30;1.80;;;;;;;;;;5054752;28;20438;-60
2022/05/29 14:10:07;;;;;;;3.77;1.40;;;;;;;;;;5060676;28;20049;-60
2022/05/29 14:12:48;;;;;;;9.37;1.97;;;;;;;;;;5063865;28;20075;-60
2022/05/29 14:15:33;;;;;;;10.20;1.40;;;;;;;;;;5069154;28;20052;-60
2022/05/29 14:18:08;;;;;;;7.67;1.50;;;;;;;;;;5055761;28;20095;-60
2022/05/29 14:20:59;;;;;;;5.70;1.27;;;;;;;;;;5070068;28;20059;-60
2022/05/29 14:23:37;;;;;;;8.77;1.43;;;;;;;;;;5064995;28;20052;-60
2022/05/29 14:26:20;;;;;;;6.87;1.70;;;;;;;;;;5067037;28;20131;-60
2022/05/29 14:29:04;;;;;;;4.43;1.10;;;;;;;;;;5068289;28;20068;-60
2022/05/29 14:31:30;;;;;;;10.13;1.90;;;;;;;;;;5067541;28;20141;-60
2022/05/29 14:34:19;;;;;;;5.63;1.40;;;;;;;;;;5066267;28;20060;-60
2022/05/29 14:36:48;;;;;;;4.17;1.13;;;;;;;;;;5050526;28;20044;-60
2022/05/29 14:39:17;;;;;;;6.07;1.07;;;;;;;;;;5069382;28;20045;-60
2022/05/29 14:41:46;;;;;;;5.70;1.23;;;;;;;;;;5070335;28;20059;-60
2022/05/29 14:44:13;;;;;;;5.90;1.53;;;;;;;;;;5056614;28;20040;-60
2022/05/29 14:49:27;;;;;;;4.10;1.37;;;;;;;;;;5066638;28;20044;-59
2022/05/29 14:52:04;;;;;;;5.27;1.30;;;;;;;;;;5068342;28;20182;-59
2022/05/29 14:54:32;;;;;;;4.13;1.30;;;;;;;;;;5069359;28;20055;-60
2022/05/29 14:57:01;;;;;;;6.23;1.40;;;;;;;;;;5067811;28;20063;-60
2022/05/29 14:59:35;;;;;;;9.17;1.63;;;;;;;;;;5068727;28;20044;-59
2022/05/29 15:02:02;;;;;;;8.50;2.37;;;;;;;;;;5061483;28;20051;-59
2022/05/29 15:04:34;;;;;;;9.33;1.47;;;;;;;;;;5069055;28;20052;-59
2022/05/29 15:12:35;;;;;;;13.07;2.70;;;;;;;;;;5069176;28;20136;-60
2022/05/29 15:15:39;;;;;;;11.30;1.70;;;;;;;;;;5061599;28;20045;-60
2022/05/29 15:18:10;;;;;;;9.75;3.92;;;;;;;;;;5049281;28;20102;-60
2022/05/29 15:26:13;;;;;;;7.23;1.40;;;;;;;;;;5052797;28;20045;-60
2022/05/29 15:28:43;;;;;;;9.13;1.90;;;;;;;;;;5051475;28;20055;-61
2022/05/29 15:31:12;;;;;;;7.13;1.80;;;;;;;;;;5065932;28;20047;-61
2022/05/29 15:33:49;;;;;;;10.63;2.30;;;;;;;;;;5052536;28;20521;-61
2022/05/29 15:36:24;;;;;;;6.93;1.73;;;;;;;;;;5048450;28;20103;-61
2022/05/29 15:38:58;;;;;;;8.57;1.47;;;;;;;;;;5048833;28;20052;-61
2022/05/29 15:41:31;;;;;;;14.50;2.17;;;;;;;;;;5058841;28;20052;-61
2022/05/29 15:44:23;;;;;;;8.05;2.13;;;;;;;;;;5069803;28;20510;-61
2022/05/29 15:46:53;;;;;;;7.80;2.23;;;;;;;;;;5068792;28;20102;-61
2022/05/29 15:49:21;;;;;;;8.67;1.70;;;;;;;;;;5066682;28;20132;-61
2022/05/29 15:51:53;;;;;;;9.50;1.90;;;;;;;;;;5068382;28;20041;-61